Time;durP1;ratioP1;P1;durP2;ratioP2;P2;SDS_P1;SDS_P2;PMS_P1;PMS_P2;Temp;Humidity;BMP_temperature;BMP_pressure;BME280_temperature;BME280_humidity;BME280_pressure;Samples;Min_cycle;Max_cycle;Signal;HPM_P1;HPM_P2
2024/02/16 00:00:16;;;;;;;3.97;3.40;;;10.60;99.90;;;;;;5039633;28;20044;-49
2024/02/16 00:02:42;;;;;;;3.90;3.50;;;10.70;99.90;;;;;;5043250;28;20021;-49
2024/02/16 00:05:11;;;;;;;4.03;3.60;;;10.60;99.90;;;;;;5045554;28;20021;-47
2024/02/16 00:07:37;;;;;;;5.80;3.70;;;10.60;99.90;;;;;;5039105;28;20033;-51
2024/02/16 00:10:04;;;;;;;4.95;3.42;;;10.60;99.90;;;;;;5039461;28;20736;-48
2024/02/16 00:12:31;;;;;;;4.95;3.85;;;10.60;99.90;;;;;;5041673;28;20032;-49
2024/02/16 00:14:57;;;;;;;7.22;3.88;;;10.60;99.90;;;;;;5042128;28;20021;-50
2024/02/16 00:17:26;;;;;;;6.60;3.65;;;10.50;99.90;;;;;;5043419;28;20528;-47
2024/02/16 00:19:52;;;;;;;4.43;3.72;;;10.50;99.90;;;;;;5043305;28;20025;-49
2024/02/16 00:22:18;;;;;;;6.63;3.88;;;10.60;99.90;;;;;;5043295;28;20040;-51
2024/02/16 00:24:44;;;;;;;4.75;4.05;;;10.50;99.90;;;;;;5044376;28;20021;-51
2024/02/16 00:27:10;;;;;;;5.53;3.97;;;10.50;99.90;;;;;;5044351;28;20460;-52
2024/02/16 00:29:38;;;;;;;3.72;3.38;;;10.40;99.90;;;;;;5039644;28;20110;-51
2024/02/16 00:32:05;;;;;;;5.35;3.97;;;10.40;99.90;;;;;;5041699;28;20532;-47
2024/02/16 00:34:32;;;;;;;4.47;3.33;;;10.40;99.90;;;;;;5042709;28;20728;-47
2024/02/16 00:36:57;;;;;;;4.63;3.40;;;10.30;99.90;;;;;;5043006;28;20025;-47
2024/02/16 00:39:23;;;;;;;4.70;3.22;;;10.30;99.90;;;;;;5044236;28;20021;-48
2024/02/16 00:41:49;;;;;;;5.22;3.70;;;10.30;99.90;;;;;;5041345;28;20036;-49
2024/02/16 00:44:15;;;;;;;4.70;3.50;;;10.30;99.90;;;;;;5041110;28;20527;-49
2024/02/16 00:46:41;;;;;;;4.97;3.10;;;10.30;99.90;;;;;;5043032;28;20024;-53
2024/02/16 00:49:07;;;;;;;4.40;3.40;;;10.30;99.90;;;;;;5044236;28;20112;-51
2024/02/16 00:51:32;;;;;;;5.78;3.53;;;10.20;99.90;;;;;;5043142;28;20419;-50
2024/02/16 00:53:58;;;;;;;8.40;4.30;;;10.20;99.90;;;;;;5062947;28;20028;-50
2024/02/16 00:56:24;;;;;;;5.05;3.33;;;10.20;99.90;;;;;;5061122;28;20450;-51
2024/02/16 00:58:50;;;;;;;3.47;3.17;;;10.20;99.90;;;;;;5062341;28;20104;-51
2024/02/16 01:01:16;;;;;;;6.00;3.65;;;10.30;99.90;;;;;;5061425;28;20132;-49
2024/02/16 01:03:41;;;;;;;4.03;3.63;;;10.20;99.90;;;;;;5041891;28;20024;-51
2024/02/16 01:06:10;;;;;;;5.07;3.70;;;10.20;99.90;;;;;;5060192;28;20055;-48
2024/02/16 01:08:35;;;;;;;4.75;3.28;;;10.20;99.90;;;;;;5060768;28;20025;-46
2024/02/16 01:11:01;;;;;;;4.72;2.90;;;10.20;99.90;;;;;;5062656;28;20032;-48
2024/02/16 01:13:27;;;;;;;5.70;3.20;;;10.20;99.90;;;;;;5059156;28;20025;-53
2024/02/16 01:15:52;;;;;;;4.38;2.92;;;10.10;99.90;;;;;;5061737;28;20116;-49
2024/02/16 01:18:18;;;;;;;5.78;3.10;;;10.10;99.90;;;;;;5058042;28;20054;-48
2024/02/16 01:20:44;;;;;;;4.50;3.20;;;10.10;99.90;;;;;;5060529;28;20094;-48
2024/02/16 01:23:09;;;;;;;5.68;3.25;;;10.10;99.90;;;;;;5059789;28;20705;-48
2024/02/16 01:25:35;;;;;;;3.25;2.85;;;10.10;99.90;;;;;;5057772;28;20635;-53
2024/02/16 01:28:00;;;;;;;6.68;2.90;;;10.00;99.90;;;;;;5056113;28;20031;-49
2024/02/16 01:30:26;;;;;;;4.70;3.15;;;10.00;99.90;;;;;;5043804;28;20016;-50
2024/02/16 01:32:52;;;;;;;4.53;3.20;;;10.00;99.90;;;;;;5060488;28;20024;-50
2024/02/16 01:35:18;;;;;;;5.57;2.90;;;9.90;99.90;;;;;;5058106;28;20047;-52
2024/02/16 01:37:43;;;;;;;4.05;2.85;;;9.90;99.90;;;;;;5063209;28;20569;-50
2024/02/16 01:40:17;;;;;;;2.90;2.60;;;9.90;99.90;;;;;;5057782;28;20535;-49
2024/02/16 01:42:44;;;;;;;3.83;3.20;;;9.90;99.90;;;;;;5060521;28;20032;-50
2024/02/16 01:45:11;;;;;;;5.88;2.60;;;9.80;99.90;;;;;;5042735;28;20029;-49
2024/02/16 01:47:38;;;;;;;3.20;2.90;;;9.80;99.90;;;;;;5059953;28;20030;-48
2024/02/16 01:50:05;;;;;;;4.00;2.28;;;9.80;99.90;;;;;;5062319;28;20051;-50
2024/02/16 01:52:34;;;;;;;3.08;2.40;;;9.80;99.90;;;;;;5057697;28;20032;-53
2024/02/16 01:55:02;;;;;;;3.45;2.55;;;9.80;99.90;;;;;;5060519;28;20024;-54
2024/02/16 01:57:28;;;;;;;4.07;2.63;;;9.80;99.90;;;;;;5062127;28;20025;-50
2024/02/16 01:59:54;;;;;;;4.57;2.55;;;9.70;99.90;;;;;;5055616;28;20024;-51
2024/02/16 02:02:19;;;;;;;3.72;2.65;;;9.70;99.90;;;;;;5057755;28;20029;-46
2024/02/16 02:04:45;;;;;;;4.30;2.80;;;9.70;99.90;;;;;;5059660;28;20024;-47
2024/02/16 02:07:12;;;;;;;4.15;2.65;;;9.80;99.90;;;;;;5059036;28;20036;-47
2024/02/16 02:09:38;;;;;;;3.67;2.78;;;9.70;99.90;;;;;;5057165;28;20043;-50
2024/02/16 02:12:04;;;;;;;4.13;2.30;;;9.70;99.90;;;;;;5058342;28;20392;-51
2024/02/16 02:14:29;;;;;;;3.63;3.15;;;9.70;99.90;;;;;;5039696;28;20032;-49
2024/02/16 02:16:55;;;;;;;5.22;2.25;;;9.70;99.90;;;;;;5059305;28;20166;-47
2024/02/16 02:19:20;;;;;;;3.83;2.72;;;9.80;99.90;;;;;;5056607;28;20021;-50
2024/02/16 02:21:46;;;;;;;3.45;2.42;;;9.80;99.90;;;;;;5042597;28;20025;-49
2024/02/16 02:24:12;;;;;;;5.25;2.78;;;9.80;99.90;;;;;;5059886;28;20025;-49
2024/02/16 02:26:38;;;;;;;4.25;2.50;;;9.70;99.90;;;;;;5059435;28;20043;-49
2024/02/16 02:29:04;;;;;;;2.97;2.58;;;9.80;99.90;;;;;;5059909;28;20044;-52
2024/02/16 02:31:30;;;;;;;6.75;2.72;;;9.80;99.90;;;;;;5057097;28;20048;-48
2024/02/16 02:33:55;;;;;;;5.15;3.33;;;9.80;99.90;;;;;;5059525;28;20586;-52
2024/02/16 02:36:21;;;;;;;4.20;3.05;;;9.70;99.90;;;;;;5059292;28;20036;-49
2024/02/16 02:38:47;;;;;;;3.75;2.92;;;9.70;99.90;;;;;;5065269;28;20028;-48
2024/02/16 02:41:15;;;;;;;3.55;2.70;;;9.70;99.90;;;;;;5058115;28;20032;-47
2024/02/16 02:43:41;;;;;;;2.92;2.55;;;9.70;99.90;;;;;;5065619;28;20016;-50
2024/02/16 02:46:07;;;;;;;3.83;3.08;;;9.70;99.90;;;;;;5064666;28;20172;-47
2024/02/16 02:48:33;;;;;;;3.72;2.20;;;9.70;99.90;;;;;;5045046;28;20140;-49
2024/02/16 02:50:59;;;;;;;4.82;3.15;;;9.60;99.90;;;;;;5060004;28;20077;-54
2024/02/16 02:53:28;;;;;;;4.95;3.35;;;9.60;99.90;;;;;;5048693;28;20107;-47
2024/02/16 02:55:53;;;;;;;3.38;2.25;;;9.60;99.90;;;;;;5065012;28;20526;-48
2024/02/16 02:58:19;;;;;;;3.85;3.03;;;9.60;99.90;;;;;;5064885;28;20055;-50
2024/02/16 03:00:45;;;;;;;3.75;2.45;;;9.60;99.90;;;;;;5062893;28;20573;-50
2024/02/16 03:03:10;;;;;;;3.55;2.35;;;9.60;99.90;;;;;;5066310;28;20044;-49
2024/02/16 03:05:36;;;;;;;7.22;2.92;;;9.60;99.90;;;;;;5061645;28;20039;-50
2024/02/16 03:08:02;;;;;;;4.38;2.67;;;9.60;99.90;;;;;;5061234;28;20385;-52
2024/02/16 03:10:34;;;;;;;3.95;2.58;;;9.60;99.90;;;;;;5047149;28;20103;-51
2024/02/16 03:13:00;;;;;;;4.82;2.88;;;9.60;99.90;;;;;;5063160;28;20048;-51
2024/02/16 03:15:26;;;;;;;6.30;3.10;;;9.60;99.90;;;;;;5065767;28;20544;-51
2024/02/16 03:17:51;;;;;;;4.80;3.03;;;9.50;99.90;;;;;;5062183;28;20123;-50
2024/02/16 03:20:17;;;;;;;5.30;3.08;;;9.60;99.90;;;;;;5043548;28;20504;-54
2024/02/16 03:22:43;;;;;;;8.68;2.83;;;9.60;99.90;;;;;;5063406;28;20025;-52
2024/02/16 03:25:09;;;;;;;5.28;3.00;;;9.60;99.90;;;;;;5065031;28;20025;-51
2024/02/16 03:27:34;;;;;;;3.25;2.40;;;9.60;99.90;;;;;;5065303;28;20039;-50
2024/02/16 03:30:01;;;;;;;4.75;2.88;;;9.60;99.90;;;;;;5063428;28;20021;-48
2024/02/16 03:32:27;;;;;;;6.85;3.03;;;9.60;99.90;;;;;;5065270;28;20722;-48
2024/02/16 03:34:52;;;;;;;3.80;2.20;;;9.60;99.90;;;;;;5063245;28;20029;-50
2024/02/16 03:37:18;;;;;;;3.97;2.63;;;9.60;99.90;;;;;;5065588;28;20464;-51
2024/02/16 03:39:44;;;;;;;3.88;2.50;;;9.60;99.90;;;;;;5042647;28;20057;-52
2024/02/16 03:42:09;;;;;;;6.05;2.88;;;9.60;99.90;;;;;;5065293;28;20527;-54
2024/02/16 03:44:35;;;;;;;2.97;2.60;;;9.60;99.90;;;;;;5064826;28;20496;-54
2024/02/16 03:47:00;;;;;;;6.50;3.03;;;9.60;99.90;;;;;;5065087;28;20071;-49
2024/02/16 03:49:29;;;;;;;4.13;3.00;;;9.60;99.90;;;;;;5064902;28;20459;-49
2024/02/16 03:51:54;;;;;;;3.63;2.20;;;9.60;99.90;;;;;;5064539;28;20033;-48
2024/02/16 03:54:20;;;;;;;4.82;2.90;;;9.60;99.90;;;;;;5062515;28;20085;-47
2024/02/16 03:56:45;;;;;;;5.15;2.70;;;9.60;99.90;;;;;;5067017;28;20025;-50
2024/02/16 03:59:11;;;;;;;4.35;2.88;;;9.60;99.90;;;;;;5065683;28;20074;-47
2024/02/16 04:01:37;;;;;;;3.55;2.85;;;9.60;99.90;;;;;;5062399;28;20033;-48
2024/02/16 04:04:03;;;;;;;3.60;2.72;;;9.60;99.90;;;;;;5062919;28;20709;-49
2024/02/16 04:06:28;;;;;;;4.20;2.78;;;9.60;99.90;;;;;;5041323;28;20025;-48
2024/02/16 04:08:55;;;;;;;6.60;3.08;;;9.60;99.90;;;;;;5059659;28;20477;-52
2024/02/16 04:11:21;;;;;;;3.80;2.78;;;9.60;99.90;;;;;;5065517;28;20025;-47
2024/02/16 04:13:48;;;;;;;3.58;2.75;;;9.60;99.90;;;;;;5064839;28;20099;-46
2024/02/16 04:16:13;;;;;;;8.00;2.67;;;9.60;99.90;;;;;;5063667;28;20082;-47
2024/02/16 04:18:39;;;;;;;6.20;3.03;;;9.60;99.90;;;;;;5063071;28;20113;-50
2024/02/16 04:21:05;;;;;;;4.72;3.00;;;9.60;99.90;;;;;;5062223;28;20575;-51
2024/02/16 04:23:30;;;;;;;4.72;2.88;;;9.60;99.90;;;;;;5064834;28;20050;-50
2024/02/16 04:25:56;;;;;;;3.58;2.38;;;9.60;99.90;;;;;;5058998;28;20118;-49
2024/02/16 04:28:22;;;;;;;3.15;2.53;;;9.60;99.90;;;;;;5057605;28;20064;-50
2024/02/16 04:30:47;;;;;;;5.18;2.78;;;9.60;99.90;;;;;;5058537;28;20020;-47
2024/02/16 04:33:13;;;;;;;3.85;2.55;;;9.60;99.90;;;;;;5058801;28;20114;-47
2024/02/16 04:35:38;;;;;;;3.13;2.58;;;9.60;99.90;;;;;;5045526;28;20028;-49
2024/02/16 04:38:04;;;;;;;2.55;2.25;;;9.60;99.90;;;;;;5065530;28;20029;-47
2024/02/16 04:40:36;;;;;;;3.97;2.40;;;9.60;99.90;;;;;;5063433;28;20435;-50
2024/02/16 04:43:02;;;;;;;4.10;2.90;;;9.60;99.90;;;;;;5061531;28;20403;-48
2024/02/16 04:45:30;;;;;;;5.53;3.00;;;9.60;99.90;;;;;;5063058;28;20024;-47
2024/02/16 04:47:55;;;;;;;4.30;2.38;;;9.60;99.90;;;;;;5064107;28;20015;-46
2024/02/16 04:50:21;;;;;;;3.05;2.35;;;9.60;99.90;;;;;;5065170;28;20567;-48
2024/02/16 04:52:47;;;;;;;5.60;2.70;;;9.60;99.90;;;;;;5062437;28;20028;-52
2024/02/16 04:55:13;;;;;;;3.70;2.80;;;9.60;99.90;;;;;;5062339;28;20013;-49
2024/02/16 04:57:39;;;;;;;7.00;3.22;;;9.50;99.90;;;;;;5061528;28;20031;-47
2024/02/16 05:00:05;;;;;;;5.05;2.63;;;9.50;99.90;;;;;;5060648;28;20025;-49
2024/02/16 05:02:31;;;;;;;2.60;2.40;;;9.50;99.90;;;;;;5064987;28;20107;-50
2024/02/16 05:04:56;;;;;;;5.65;2.53;;;9.50;99.90;;;;;;5062744;28;20039;-49
2024/02/16 05:07:22;;;;;;;3.58;2.60;;;9.50;99.90;;;;;;5061261;28;20032;-50
2024/02/16 05:09:49;;;;;;;6.70;2.67;;;9.50;99.90;;;;;;5061763;28;20020;-47
2024/02/16 05:12:15;;;;;;;4.60;3.10;;;9.50;99.90;;;;;;5063691;28;20642;-54
2024/02/16 05:14:40;;;;;;;4.00;3.17;;;9.50;99.90;;;;;;5063848;28;20040;-48
2024/02/16 05:17:06;;;;;;;4.18;3.15;;;9.50;99.90;;;;;;5062024;28;20025;-50
2024/02/16 05:19:33;;;;;;;4.00;2.97;;;9.50;99.90;;;;;;5062966;28;20541;-48
2024/02/16 05:21:59;;;;;;;6.85;3.50;;;9.50;99.90;;;;;;5063773;28;20695;-48
2024/02/16 05:24:24;;;;;;;3.92;2.97;;;9.50;99.90;;;;;;5061052;28;20100;-50
2024/02/16 05:26:51;;;;;;;4.45;3.95;;;9.50;99.90;;;;;;5061218;28;20089;-51
2024/02/16 05:29:17;;;;;;;6.95;4.55;;;9.40;99.90;;;;;;5059555;28;20115;-54
2024/02/16 05:31:42;;;;;;;4.10;3.65;;;9.50;99.90;;;;;;5042740;28;20552;-49
2024/02/16 05:34:08;;;;;;;4.57;3.35;;;9.40;99.90;;;;;;5060462;28;20037;-46
2024/02/16 05:36:35;;;;;;;3.72;2.88;;;9.40;99.90;;;;;;5060553;28;20035;-49
2024/02/16 05:39:10;;;;;;;4.65;2.58;;;9.40;99.90;;;;;;5057555;28;20241;-46
2024/02/16 05:41:38;;;;;;;3.45;2.33;;;9.40;99.90;;;;;;5044559;28;20032;-52
2024/02/16 05:44:04;;;;;;;7.07;3.40;;;9.40;99.90;;;;;;5057308;28;20017;-50
2024/02/16 05:46:30;;;;;;;3.05;2.75;;;9.40;99.90;;;;;;5052657;28;20024;-52
2024/02/16 05:48:55;;;;;;;4.05;2.72;;;9.40;99.90;;;;;;5055214;28;20071;-49
2024/02/16 05:51:21;;;;;;;4.00;2.58;;;9.40;99.90;;;;;;5057970;28;20319;-48
2024/02/16 05:53:47;;;;;;;6.70;2.95;;;9.40;99.90;;;;;;5084996;23;20068;-64
2024/02/16 05:56:12;;;;;;;3.15;2.78;;;9.40;99.90;;;;;;5061704;28;20545;-64
2024/02/16 05:58:38;;;;;;;4.50;2.42;;;9.40;99.90;;;;;;5064727;28;20032;-65
2024/02/16 06:01:04;;;;;;;5.05;2.47;;;9.30;99.90;;;;;;5060892;28;20024;-65
2024/02/16 06:03:29;;;;;;;2.10;1.90;;;9.30;99.90;;;;;;5057606;28;20036;-64
2024/02/16 06:05:55;;;;;;;5.07;3.05;;;9.30;99.90;;;;;;5064430;28;20029;-65
2024/02/16 06:08:20;;;;;;;4.25;2.22;;;9.30;99.90;;;;;;5055699;28;20056;-65
2024/02/16 06:10:53;;;;;;;4.65;2.33;;;9.30;99.90;;;;;;5060114;28;20527;-64
2024/02/16 06:13:20;;;;;;;4.15;2.20;;;9.30;99.90;;;;;;5079222;28;20016;-65
2024/02/16 06:15:47;;;;;;;3.45;2.25;;;9.30;99.90;;;;;;5065611;28;20025;-65
2024/02/16 06:18:12;;;;;;;5.20;2.83;;;9.30;99.90;;;;;;5067337;28;20020;-65
2024/02/16 06:20:38;;;;;;;4.78;1.75;;;9.20;99.90;;;;;;5078133;28;20384;-66
2024/02/16 06:23:03;;;;;;;2.35;1.80;;;9.20;99.90;;;;;;5064145;28;20685;-65
2024/02/16 06:25:29;;;;;;;4.38;2.08;;;9.20;99.90;;;;;;5064396;28;20033;-65
2024/02/16 06:27:55;;;;;;;3.45;2.40;;;9.20;99.90;;;;;;5065388;28;20028;-64
2024/02/16 06:30:20;;;;;;;2.92;1.88;;;9.20;99.90;;;;;;5062581;28;20027;-65
2024/02/16 06:32:46;;;;;;;2.63;2.20;;;9.20;99.90;;;;;;5061617;28;20711;-65
2024/02/16 06:35:11;;;;;;;3.80;2.38;;;9.10;99.90;;;;;;5064564;28;20488;-65
2024/02/16 06:37:38;;;;;;;3.72;1.88;;;9.00;99.90;;;;;;5080176;28;20055;-64
2024/02/16 06:40:05;;;;;;;3.13;2.50;;;9.10;99.90;;;;;;5063139;28;20028;-65
2024/02/16 06:42:31;;;;;;;4.38;2.13;;;9.00;99.90;;;;;;5060834;28;20428;-65
2024/02/16 06:44:57;;;;;;;2.92;1.95;;;9.00;99.90;;;;;;5076625;28;20033;-65
2024/02/16 06:47:25;;;;;;;3.30;2.65;;;9.00;99.90;;;;;;5064457;28;20174;-65
2024/02/16 06:49:51;;;;;;;3.53;2.65;;;9.00;99.90;;;;;;5063529;28;20025;-64
2024/02/16 06:52:16;;;;;;;3.45;2.58;;;9.00;99.90;;;;;;5062125;28;20051;-65
2024/02/16 06:54:42;;;;;;;3.78;2.28;;;9.00;99.90;;;;;;5064158;28;20040;-65
2024/02/16 06:57:07;;;;;;;3.58;2.20;;;9.00;99.90;;;;;;5067190;28;20034;-65
2024/02/16 06:59:33;;;;;;;3.42;2.22;;;9.00;99.90;;;;;;5066411;28;20039;-65
2024/02/16 07:01:58;;;;;;;5.32;2.30;;;8.90;99.90;;;;;;5065697;28;20029;-64
2024/02/16 07:04:24;;;;;;;4.70;2.42;;;8.90;99.90;;;;;;5065069;28;20029;-65
2024/02/16 07:06:50;;;;;;;4.43;2.30;;;8.90;99.90;;;;;;5065975;28;20028;-65
2024/02/16 07:09:16;;;;;;;4.07;2.47;;;8.90;99.90;;;;;;5066359;28;20036;-64
2024/02/16 07:11:42;;;;;;;2.70;2.22;;;8.90;99.90;;;;;;5066172;28;20025;-64
2024/02/16 07:14:08;;;;;;;3.63;2.15;;;8.90;99.90;;;;;;5064292;28;20541;-65
2024/02/16 07:16:34;;;;;;;7.00;2.70;;;8.90;99.90;;;;;;5065732;28;20033;-64
2024/02/16 07:18:59;;;;;;;3.58;2.38;;;8.90;99.90;;;;;;5064629;28;20107;-65
2024/02/16 07:21:25;;;;;;;3.58;2.72;;;8.90;99.90;;;;;;5065959;28;20091;-65
2024/02/16 07:23:52;;;;;;;3.80;2.35;;;8.90;99.90;;;;;;5067663;28;20568;-64
2024/02/16 07:26:18;;;;;;;6.43;2.67;;;8.90;99.90;;;;;;5078911;28;20024;-66
2024/02/16 07:28:44;;;;;;;3.55;2.65;;;8.90;99.90;;;;;;5066943;28;20081;-65
2024/02/16 07:31:11;;;;;;;3.72;2.45;;;9.00;99.90;;;;;;5077922;28;20459;-66
2024/02/16 07:33:36;;;;;;;3.35;2.75;;;9.00;99.90;;;;;;5064909;28;20438;-66
2024/02/16 07:36:02;;;;;;;5.63;2.28;;;9.00;99.90;;;;;;5079615;28;20029;-65
2024/02/16 07:38:28;;;;;;;5.05;2.15;;;9.00;99.90;;;;;;5065393;28;20032;-65
2024/02/16 07:40:54;;;;;;;4.85;2.50;;;9.00;99.90;;;;;;5064438;28;20051;-65
2024/02/16 07:43:21;;;;;;;4.93;2.53;;;9.10;99.90;;;;;;5065521;28;20081;-65
2024/02/16 07:45:47;;;;;;;4.82;2.45;;;9.10;99.90;;;;;;5058554;28;20487;-65
2024/02/16 07:48:12;;;;;;;4.20;2.47;;;9.20;99.90;;;;;;5065110;28;20085;-65
2024/02/16 07:50:38;;;;;;;4.18;2.45;;;9.20;99.90;;;;;;5062999;28;20459;-64
2024/02/16 07:53:04;;;;;;;4.90;3.10;;;9.20;99.90;;;;;;5064949;28;20376;-65
2024/02/16 07:55:29;;;;;;;4.85;2.80;;;9.30;99.90;;;;;;5064205;28;20488;-64
2024/02/16 07:57:55;;;;;;;4.32;3.03;;;9.30;99.90;;;;;;5065797;28;20044;-65
2024/02/16 08:00:20;;;;;;;4.90;3.83;;;9.40;99.90;;;;;;5063592;28;20024;-65
2024/02/16 08:02:46;;;;;;;5.20;3.05;;;9.40;99.90;;;;;;5066462;28;20640;-65
2024/02/16 08:05:15;;;;;;;3.55;2.78;;;9.40;99.90;;;;;;5065664;28;20040;-65
2024/02/16 08:07:44;;;;;;;5.70;2.30;;;9.50;99.90;;;;;;5064629;28;20028;-65
2024/02/16 08:10:10;;;;;;;5.32;3.15;;;9.50;99.90;;;;;;5062400;28;20508;-65
2024/02/16 08:12:35;;;;;;;5.75;2.60;;;9.60;99.90;;;;;;5063738;28;20036;-64
2024/02/16 08:15:07;;;;;;;2.95;2.47;;;9.70;99.90;;;;;;5065294;28;20396;-64
2024/02/16 08:17:36;;;;;;;2.83;2.20;;;9.70;99.90;;;;;;5064104;28;20040;-65
2024/02/16 08:20:02;;;;;;;4.90;2.28;;;9.80;99.90;;;;;;5065668;28;20096;-64
2024/02/16 08:22:28;;;;;;;3.72;2.65;;;9.90;99.90;;;;;;5064971;28;20032;-64
2024/02/16 08:24:54;;;;;;;5.50;3.25;;;10.00;99.90;;;;;;5065121;28;20047;-64
2024/02/16 08:27:20;;;;;;;4.65;2.80;;;10.10;99.90;;;;;;5062635;28;20036;-65
2024/02/16 08:29:45;;;;;;;3.13;2.28;;;10.10;99.90;;;;;;5065140;28;20525;-64
2024/02/16 08:32:11;;;;;;;2.78;2.30;;;10.20;99.90;;;;;;5065183;28;20028;-65
2024/02/16 08:34:37;;;;;;;2.88;2.03;;;10.20;99.90;;;;;;5063896;28;20035;-64
2024/02/16 08:37:04;;;;;;;2.88;2.10;;;10.30;99.90;;;;;;5065143;28;20029;-65
2024/02/16 08:39:31;;;;;;;8.05;2.65;;;10.30;99.90;;;;;;5065054;28;20641;-65
2024/02/16 08:41:58;;;;;;;4.25;2.58;;;10.30;99.90;;;;;;5065736;28;20545;-65
2024/02/16 08:44:24;;;;;;;4.35;2.10;;;10.40;99.90;;;;;;5063013;28;20028;-65
2024/02/16 08:46:50;;;;;;;3.90;1.77;;;10.40;99.90;;;;;;5064136;28;20020;-64
2024/02/16 08:49:16;;;;;;;2.40;2.00;;;10.50;99.90;;;;;;5064853;28;20029;-65
2024/02/16 08:51:45;;;;;;;4.43;2.17;;;10.50;99.90;;;;;;5064758;28;20537;-65
2024/02/16 08:54:10;;;;;;;2.38;2.13;;;10.50;99.90;;;;;;5074923;28;20032;-64
2024/02/16 08:56:39;;;;;;;3.85;1.85;;;10.60;99.90;;;;;;5063820;28;20020;-64
2024/02/16 08:59:04;;;;;;;5.93;2.10;;;10.60;99.90;;;;;;5064648;28;20036;-65
2024/02/16 09:01:48;;;;;;;2.42;1.70;;;10.70;99.90;;;;;;5063918;28;20071;-64
2024/02/16 09:04:15;;;;;;;4.30;1.90;;;10.70;99.90;;;;;;5063900;28;20116;-64
2024/02/16 09:06:41;;;;;;;1.70;1.60;;;10.70;99.90;;;;;;5062641;28;20027;-64
2024/02/16 09:09:07;;;;;;;3.53;2.10;;;10.80;99.90;;;;;;5063072;28;20031;-64
2024/02/16 09:11:33;;;;;;;3.92;1.85;;;10.80;99.90;;;;;;5060228;28;20491;-64
2024/02/16 09:13:59;;;;;;;3.88;1.80;;;10.80;99.90;;;;;;5077703;28;20016;-65
2024/02/16 09:16:25;;;;;;;3.10;2.30;;;10.90;99.90;;;;;;5062582;28;20031;-65
2024/02/16 09:18:50;;;;;;;2.72;1.50;;;10.80;99.90;;;;;;5064314;28;20059;-64
2024/02/16 09:21:16;;;;;;;2.30;1.92;;;10.90;99.90;;;;;;5064323;28;20112;-63
2024/02/16 09:23:41;;;;;;;2.63;1.98;;;10.90;99.90;;;;;;5064566;28;20079;-65
2024/02/16 09:26:10;;;;;;;1.92;1.83;;;10.90;99.90;;;;;;5065024;28;20033;-64
2024/02/16 09:28:40;;;;;;;4.65;1.85;;;11.00;99.90;;;;;;5064198;28;20056;-64
2024/02/16 09:31:07;;;;;;;3.45;2.10;;;11.00;99.90;;;;;;5062986;28;20071;-64
2024/02/16 09:33:33;;;;;;;3.35;1.70;;;11.00;99.90;;;;;;5065196;28;20133;-64
2024/02/16 09:35:58;;;;;;;3.85;2.00;;;11.00;99.90;;;;;;5064164;28;20115;-65
2024/02/16 09:38:24;;;;;;;2.92;1.83;;;11.10;99.90;;;;;;5060513;28;20092;-65
2024/02/16 09:40:50;;;;;;;3.03;1.42;;;11.10;99.90;;;;;;5065192;28;20020;-65
2024/02/16 09:43:31;;;;;;;2.55;2.05;;;11.20;99.90;;;;;;5061507;28;20021;-65
2024/02/16 09:45:58;;;;;;;4.43;1.55;;;11.20;99.90;;;;;;5063007;28;20040;-65
2024/02/16 09:48:29;;;;;;;5.07;2.28;;;11.20;99.90;;;;;;5062379;28;20036;-63
2024/02/16 09:50:56;;;;;;;5.15;1.98;;;11.30;99.90;;;;;;5062826;28;20043;-63
2024/02/16 09:53:25;;;;;;;2.72;1.85;;;11.30;99.90;;;;;;5061235;28;20048;-64
2024/02/16 09:55:51;;;;;;;2.33;1.80;;;11.40;99.90;;;;;;5058836;28;20021;-63
2024/02/16 09:58:18;;;;;;;2.53;1.73;;;11.40;99.90;;;;;;5064488;28;20043;-63
2024/02/16 10:00:55;;;;;;;2.40;2.10;;;11.40;99.90;;;;;;5061885;28;20025;-63
2024/02/16 10:03:29;;;;;;;2.50;1.58;;;11.50;99.90;;;;;;5059065;28;20028;-64
2024/02/16 10:06:11;;;;;;;5.80;1.55;;;11.40;99.90;;;;;;5063955;28;20107;-64
2024/02/16 10:08:56;;;;;;;3.63;1.50;;;11.50;99.90;;;;;;5060553;28;20040;-64
2024/02/16 10:11:24;;;;;;;2.20;1.45;;;11.50;99.90;;;;;;5056897;28;20074;-63
2024/02/16 10:14:00;;;;;;;2.13;1.58;;;11.50;99.90;;;;;;5061278;28;20023;-64
2024/02/16 10:16:29;;;;;;;1.35;1.23;;;11.50;99.90;;;;;;5062704;28;20028;-63
2024/02/16 10:18:59;;;;;;;4.47;1.80;;;11.50;99.90;;;;;;5077879;28;20031;-64
2024/02/16 10:21:27;;;;;;;3.03;1.50;;;11.60;99.90;;;;;;5063894;28;20507;-63
2024/02/16 10:23:57;;;;;;;2.13;1.67;;;11.70;99.90;;;;;;5063959;28;20562;-63
2024/02/16 10:26:23;;;;;;;3.38;2.08;;;11.70;99.90;;;;;;5062870;28;20032;-64
2024/02/16 10:28:53;;;;;;;3.22;1.95;;;11.80;99.90;;;;;;5062171;28;20404;-64
2024/02/16 10:31:27;;;;;;;2.13;1.90;;;11.80;99.90;;;;;;5062531;28;21290;-63
2024/02/16 10:33:57;;;;;;;3.40;2.15;;;11.80;99.90;;;;;;5059750;28;20024;-63
2024/02/16 10:36:25;;;;;;;4.70;2.17;;;11.90;99.90;;;;;;5060414;28;20480;-63
2024/02/16 10:38:53;;;;;;;3.08;2.00;;;11.90;99.90;;;;;;5061282;28;20037;-61
2024/02/16 10:41:21;;;;;;;3.47;1.70;;;11.90;99.90;;;;;;5061327;28;20558;-63
2024/02/16 10:43:49;;;;;;;3.25;2.15;;;12.00;99.90;;;;;;5062587;28;20086;-63
2024/02/16 10:46:17;;;;;;;3.10;2.00;;;12.00;99.90;;;;;;5063116;28;20579;-63
2024/02/16 10:48:43;;;;;;;4.22;1.73;;;12.00;99.90;;;;;;5062687;28;20130;-63
2024/02/16 10:51:11;;;;;;;5.15;1.88;;;12.00;99.90;;;;;;5059383;28;20033;-63
2024/02/16 10:53:37;;;;;;;3.17;1.85;;;12.00;99.90;;;;;;5060678;28;20036;-64
2024/02/16 10:56:03;;;;;;;4.00;2.03;;;11.90;99.90;;;;;;5062404;28;20110;-64
2024/02/16 10:58:29;;;;;;;2.17;1.75;;;12.00;99.90;;;;;;5067544;28;20029;-64
2024/02/16 11:00:56;;;;;;;3.50;2.28;;;12.00;99.90;;;;;;5064710;28;20251;-64
2024/02/16 11:03:24;;;;;;;3.67;1.90;;;11.90;99.90;;;;;;5063867;28;20024;-64
2024/02/16 11:05:50;;;;;;;2.25;1.70;;;11.90;99.90;;;;;;5067234;28;20024;-64
2024/02/16 11:08:18;;;;;;;4.20;1.98;;;12.00;99.90;;;;;;5067337;28;20134;-64
2024/02/16 11:11:00;;;;;;;3.75;1.67;;;12.10;99.90;;;;;;5066099;28;20017;-64
2024/02/16 11:13:28;;;;;;;3.95;2.22;;;12.20;99.90;;;;;;5064386;28;20601;-63
2024/02/16 11:16:07;;;;;;;1.98;1.60;;;12.20;99.90;;;;;;5060543;28;20384;-64
2024/02/16 11:18:38;;;;;;;2.90;1.70;;;12.30;99.90;;;;;;5067155;28;20120;-63
2024/02/16 11:21:03;;;;;;;2.00;1.30;;;12.40;99.90;;;;;;5065328;28;20477;-63
2024/02/16 11:23:31;;;;;;;3.15;1.70;;;12.60;99.90;;;;;;5064979;28;20032;-64
2024/02/16 11:26:04;;;;;;;1.45;1.35;;;12.60;99.90;;;;;;5067163;28;20056;-64
2024/02/16 11:28:34;;;;;;;4.90;1.67;;;12.70;99.90;;;;;;5066774;28;20038;-63
2024/02/16 11:31:01;;;;;;;7.00;1.63;;;12.80;99.90;;;;;;5064906;28;20033;-64
2024/02/16 11:33:29;;;;;;;2.92;1.40;;;12.90;99.90;;;;;;5060712;28;20086;-62
2024/02/16 11:36:05;;;;;;;5.78;1.65;;;13.00;99.90;;;;;;5078605;28;20081;-64
2024/02/16 11:38:34;;;;;;;2.00;1.73;;;13.00;99.90;;;;;;5064625;28;20028;-64
2024/02/16 11:41:05;;;;;;;3.50;1.42;;;13.10;99.90;;;;;;5080055;28;20024;-64
2024/02/16 11:43:32;;;;;;;1.92;1.58;;;13.10;99.90;;;;;;5063053;28;20407;-63
2024/02/16 11:45:58;;;;;;;6.07;1.70;;;13.20;99.90;;;;;;5063816;28;20036;-64
2024/02/16 11:48:27;;;;;;;2.50;1.70;;;13.20;99.90;;;;;;5061806;28;20119;-63
2024/02/16 11:51:03;;;;;;;2.38;1.77;;;13.20;99.90;;;;;;5062758;28;20032;-64
2024/02/16 11:53:33;;;;;;;1.85;1.30;;;13.20;99.90;;;;;;5058593;28;20848;-64
2024/02/16 11:55:59;;;;;;;2.65;1.50;;;13.20;99.90;;;;;;5064656;28;20504;-64
2024/02/16 11:58:25;;;;;;;2.65;1.65;;;13.20;99.90;;;;;;5064859;28;20028;-63
2024/02/16 12:00:51;;;;;;;2.65;1.30;;;13.20;99.90;;;;;;5063776;28;20021;-63
2024/02/16 12:03:25;;;;;;;2.35;1.52;;;13.30;99.90;;;;;;5061886;28;20024;-63
2024/02/16 12:05:58;;;;;;;2.47;1.35;;;13.30;99.90;;;;;;5064748;28;20017;-64
2024/02/16 12:08:33;;;;;;;3.92;1.73;;;13.30;99.90;;;;;;5065394;28;20060;-63
2024/02/16 12:10:59;;;;;;;2.30;1.80;;;13.40;99.90;;;;;;5061779;28;20020;-64
2024/02/16 12:13:24;;;;;;;3.35;1.98;;;13.50;99.90;;;;;;5059156;28;20173;-64
2024/02/16 12:15:51;;;;;;;2.88;1.80;;;13.50;99.90;;;;;;5065700;28;20388;-63
2024/02/16 12:18:24;;;;;;;3.55;2.03;;;13.60;99.90;;;;;;5065144;28;20036;-64
2024/02/16 12:21:03;;;;;;;2.85;1.75;;;13.60;99.90;;;;;;5065663;28;20060;-64
2024/02/16 12:23:32;;;;;;;4.85;2.03;;;13.70;99.90;;;;;;5077084;28;20029;-64
2024/02/16 12:26:01;;;;;;;3.60;2.33;;;13.70;99.90;;;;;;5064456;28;20112;-64
2024/02/16 12:28:34;;;;;;;6.07;2.47;;;13.70;99.90;;;;;;5060286;28;20484;-63
2024/02/16 12:31:00;;;;;;;4.30;1.92;;;13.70;99.90;;;;;;5061905;28;20024;-63
2024/02/16 12:33:26;;;;;;;2.05;1.73;;;13.70;99.90;;;;;;5066649;28;20021;-64
2024/02/16 12:35:52;;;;;;;3.35;2.15;;;13.80;99.90;;;;;;5063281;28;20020;-63
2024/02/16 12:38:19;;;;;;;3.15;2.17;;;13.80;99.90;;;;;;5064890;28;20058;-64
2024/02/16 12:40:48;;;;;;;4.55;2.03;;;13.80;99.90;;;;;;5065436;28;20024;-63
2024/02/16 12:43:14;;;;;;;3.15;2.25;;;13.80;99.90;;;;;;5061351;28;20020;-63
2024/02/16 12:45:43;;;;;;;2.40;2.20;;;13.90;99.90;;;;;;5059675;28;20044;-65
2024/02/16 12:48:14;;;;;;;2.45;2.25;;;13.90;99.90;;;;;;5062491;28;20479;-64
2024/02/16 12:50:41;;;;;;;4.07;2.03;;;13.90;99.90;;;;;;5064160;28;20020;-64